Time;durP1;ratioP1;P1;durP2;ratioP2;P2;SDS_P1;SDS_P2;PMS_P1;PMS_P2;Temp;Humidity;BMP_temperature;BMP_pressure;BME280_temperature;BME280_humidity;BME280_pressure;Samples;Min_cycle;Max_cycle;Signal;HPM_P1;HPM_P2
2023/01/14 00:00:39;;;;;;;;;;;;;;;15.72;59.91;101214.38;2084825;28;19939;-77
2023/01/14 00:01:42;;;;;;;;;;;;;;;15.71;59.79;101208.16;2076125;28;20416;-77
2023/01/14 00:02:44;;;;;;;;;;;;;;;15.71;59.89;101219.06;2070358;28;19926;-77
2023/01/14 00:03:47;;;;;;;;;;;;;;;15.72;59.74;101214.38;2068421;28;19929;-76
2023/01/14 00:04:49;;;;;;;;;;;;;;;15.72;59.95;101220.59;2067924;28;19930;-76
2023/01/14 00:05:58;;;;;;;;;;;;;;;15.71;59.66;101229.94;2068615;28;19933;-76
2023/01/14 00:07:01;;;;;;;;;;;;;;;15.71;59.83;101235.38;2069438;28;19973;-76
2023/01/14 00:08:02;;;;;;;;;;;;;;;15.71;59.75;101235.38;2067615;28;20830;-77
2023/01/14 00:09:06;;;;;;;;;;;;;;;15.71;59.87;101234.59;2060213;28;19926;-77
2023/01/14 00:10:08;;;;;;;;;;;;;;;15.71;59.94;101235.38;2068967;28;19941;-77
2023/01/14 00:11:11;;;;;;;;;;;;;;;15.71;59.97;101235.38;2075926;28;19978;-78
2023/01/14 00:12:13;;;;;;;;;;;;;;;15.71;59.94;101229.94;2076273;28;19940;-77
2023/01/14 00:13:16;;;;;;;;;;;;;;;15.71;60.00;101229.94;2076822;28;19929;-76
2023/01/14 00:14:21;;;;;;;;;;;;;;;15.71;59.88;101229.94;2075236;28;19929;-76
2023/01/14 00:15:22;;;;;;;;;;;;;;;15.71;59.94;101223.69;2086215;28;19924;-77
2023/01/14 00:16:25;;;;;;;;;;;;;;;15.71;60.00;101229.13;2085474;28;19932;-74
2023/01/14 00:17:27;;;;;;;;;;;;;;;15.71;59.95;101229.94;2069528;28;19925;-76
2023/01/14 00:18:31;;;;;;;;;;;;;;;15.71;59.88;101231.88;2060826;28;19953;-75
2023/01/14 00:19:33;;;;;;;;;;;;;;;15.71;59.87;101221.78;2076578;28;19937;-75
2023/01/14 00:20:35;;;;;;;;;;;;;;;15.70;59.96;101220.19;2076124;28;19936;-76
2023/01/14 00:21:40;;;;;;;;;;;;;;;15.70;59.87;101222.91;2067484;28;19929;-75
2023/01/14 00:22:42;;;;;;;;;;;;;;;15.70;59.78;101222.91;2076227;28;19933;-75
2023/01/14 00:23:45;;;;;;;;;;;;;;;15.69;59.75;101221.34;2075810;28;19936;-75
2023/01/14 00:24:47;;;;;;;;;;;;;;;15.69;59.80;101215.91;2076776;28;19929;-75
2023/01/14 00:25:49;;;;;;;;;;;;;;;15.70;59.84;101214.75;2068813;28;19929;-75
2023/01/14 00:26:53;;;;;;;;;;;;;;;15.70;59.95;101219.38;2069083;28;19940;-75
2023/01/14 00:27:55;;;;;;;;;;;;;;;15.70;59.99;101217.47;2061330;28;19926;-75
2023/01/14 00:28:57;;;;;;;;;;;;;;;15.69;59.94;101213.19;2069439;28;19929;-76
2023/01/14 00:29:59;;;;;;;;;;;;;;;15.69;59.76;101215.09;2077030;28;19933;-76
2023/01/14 00:31:06;;;;;;;;;;;;;;;15.68;59.93;101219.75;2075499;28;19937;-75
2023/01/14 00:32:07;;;;;;;;;;;;;;;15.68;59.78;101214.31;2068456;28;20926;-75
2023/01/14 00:33:10;;;;;;;;;;;;;;;15.69;59.85;101210.44;2075793;28;19936;-75
2023/01/14 00:34:14;;;;;;;;;;;;;;;15.68;59.70;101214.31;2076690;28;20008;-75
2023/01/14 00:35:16;;;;;;;;;;;;;;;15.68;59.75;101219.75;2076088;28;20692;-75
2023/01/14 00:36:19;;;;;;;;;;;;;;;15.68;60.06;101218.97;2077960;28;20691;-75
2023/01/14 00:37:23;;;;;;;;;;;;;;;15.67;59.86;101223.63;2077551;28;19941;-75
2023/01/14 00:38:25;;;;;;;;;;;;;;;15.68;59.99;101219.75;2077142;28;19925;-75
2023/01/14 00:39:28;;;;;;;;;;;;;;;15.68;59.81;101217.03;2078349;28;19929;-75
2023/01/14 00:40:29;;;;;;;;;;;;;;;15.69;59.99;101226.00;2075390;28;20504;-75
2023/01/14 00:41:32;;;;;;;;;;;;;;;15.68;59.83;101219.75;2069727;28;20509;-75
2023/01/14 00:42:35;;;;;;;;;;;;;;;15.68;59.97;101222.47;2069187;28;20413;-75
2023/01/14 00:43:39;;;;;;;;;;;;;;;15.68;59.93;101232.59;2075135;28;20451;-75
2023/01/14 00:44:41;;;;;;;;;;;;;;;15.68;59.90;101224.44;2076703;28;19979;-76
2023/01/14 00:45:44;;;;;;;;;;;;;;;15.67;59.98;101226.34;2076197;28;20331;-76
2023/01/14 00:46:47;;;;;;;;;;;;;;;15.67;59.94;101226.34;2075020;28;19929;-75
2023/01/14 00:47:49;;;;;;;;;;;;;;;15.67;59.78;101223.63;2076185;28;19929;-76
2023/01/14 00:48:54;;;;;;;;;;;;;;;15.67;59.82;101223.63;2077644;28;19975;-75
2023/01/14 00:49:56;;;;;;;;;;;;;;;15.67;59.83;101222.84;2061562;28;20315;-76
2023/01/14 00:50:59;;;;;;;;;;;;;;;15.67;59.80;101229.09;2067383;28;19936;-75
2023/01/14 00:52:03;;;;;;;;;;;;;;;15.67;60.01;101229.09;2077716;28;20248;-75
2023/01/14 00:53:06;;;;;;;;;;;;;;;15.66;59.64;101227.53;2078571;28;19932;-74
2023/01/14 00:54:08;;;;;;;;;;;;;;;15.67;59.93;101226.34;2076798;28;19929;-75
2023/01/14 00:55:10;;;;;;;;;;;;;;;15.67;60.02;101225.56;2074994;28;19933;-75
2023/01/14 00:56:13;;;;;;;;;;;;;;;15.67;59.81;101229.09;2068207;28;19933;-75
2023/01/14 00:57:15;;;;;;;;;;;;;;;15.65;60.02;101225.94;2069677;28;19926;-75
2023/01/14 00:58:18;;;;;;;;;;;;;;;15.66;59.96;101227.53;2069813;28;20042;-75
2023/01/14 00:59:22;;;;;;;;;;;;;;;15.67;59.99;101229.09;2068894;28;20023;-75
2023/01/14 01:00:26;;;;;;;;;;;;;;;15.65;59.92;101225.94;2072156;28;19925;-75
2023/01/14 01:01:29;;;;;;;;;;;;;;;15.66;59.91;101226.72;2068013;28;19932;-75
2023/01/14 01:02:31;;;;;;;;;;;;;;;15.65;59.90;101228.66;2069997;28;20420;-76
2023/01/14 01:03:37;;;;;;;;;;;;;;;15.66;59.88;101227.53;2075950;28;20515;-75
2023/01/14 01:04:40;;;;;;;;;;;;;;;15.66;59.78;101227.53;2076157;28;19933;-75
2023/01/14 01:05:43;;;;;;;;;;;;;;;15.65;59.85;101231.38;2075747;28;19944;-76
2023/01/14 01:06:46;;;;;;;;;;;;;;;15.65;59.90;101225.94;2067623;28;19933;-77
2023/01/14 01:07:47;;;;;;;;;;;;;;;15.66;60.04;101230.25;2075890;28;19969;-76
2023/01/14 01:08:56;;;;;;;;;;;;;;;15.66;59.94;101237.63;2092631;28;19925;-76
2023/01/14 01:09:58;;;;;;;;;;;;;;;15.65;60.01;101231.38;2068561;28;19939;-76
2023/01/14 01:11:01;;;;;;;;;;;;;;;15.65;59.95;101234.09;2061500;28;20017;-76
2023/01/14 01:12:03;;;;;;;;;;;;;;;15.65;59.88;101244.22;2068869;28;19930;-77
2023/01/14 01:13:06;;;;;;;;;;;;;;;15.65;59.65;101244.97;2076867;28;19925;-77
2023/01/14 01:14:09;;;;;;;;;;;;;;;15.65;59.79;101246.94;2076815;28;20725;-76
2023/01/14 01:15:11;;;;;;;;;;;;;;;15.65;59.76;101242.25;2067411;28;19929;-76
2023/01/14 01:16:15;;;;;;;;;;;;;;;15.65;59.99;101239.53;2068049;28;20327;-76
2023/01/14 01:17:17;;;;;;;;;;;;;;;15.65;60.03;101242.25;2075888;28;19929;-77
2023/01/14 01:18:19;;;;;;;;;;;;;;;15.64;59.95;101229.81;2067732;28;19934;-76
2023/01/14 01:19:22;;;;;;;;;;;;;;;15.64;59.85;101229.81;2082886;28;19998;-77
2023/01/14 01:20:24;;;;;;;;;;;;;;;15.65;59.94;101233.34;2076207;28;19929;-76
2023/01/14 01:21:26;;;;;;;;;;;;;;;15.65;59.82;101222.44;2068231;28;19929;-77
2023/01/14 01:22:28;;;;;;;;;;;;;;;15.64;59.93;101229.81;2084622;28;19932;-77
2023/01/14 01:23:31;;;;;;;;;;;;;;;15.64;59.96;101229.81;2085019;28;19940;-77
2023/01/14 01:24:34;;;;;;;;;;;;;;;15.64;60.03;101229.81;2075336;28;19936;-76
2023/01/14 01:25:37;;;;;;;;;;;;;;;15.64;59.94;101226.28;2068633;28;19929;-77
2023/01/14 01:26:39;;;;;;;;;;;;;;;15.64;59.87;101229.81;2068995;28;20412;-77
2023/01/14 01:27:42;;;;;;;;;;;;;;;15.63;59.92;101233.69;2074088;28;19984;-78
2023/01/14 01:28:47;;;;;;;;;;;;;;;15.64;59.71;101246.13;2067936;28;19929;-77
2023/01/14 01:29:49;;;;;;;;;;;;;;;15.64;59.93;101235.25;2060582;28;19937;-77
2023/01/14 01:30:51;;;;;;;;;;;;;;;15.64;59.84;101224.38;2070189;28;20393;-77
2023/01/14 01:31:54;;;;;;;;;;;;;;;15.64;59.90;101224.38;2075745;28;20364;-77
2023/01/14 01:32:55;;;;;;;;;;;;;;;15.64;59.88;101223.56;2074420;28;19925;-77
2023/01/14 01:33:59;;;;;;;;;;;;;;;15.64;59.84;101229.00;2076735;28;19936;-77
2023/01/14 01:35:01;;;;;;;;;;;;;;;15.63;59.81;101225.53;2068319;28;19930;-77
2023/01/14 01:36:05;;;;;;;;;;;;;;;15.63;59.94;101222.81;2068103;28;19977;-77
2023/01/14 01:37:07;;;;;;;;;;;;;;;15.62;59.88;101229.38;2069844;28;19951;-77
2023/01/14 01:38:10;;;;;;;;;;;;;;;15.62;59.83;101226.66;2076426;28;19936;-78
2023/01/14 01:39:11;;;;;;;;;;;;;;;15.63;59.94;101236.41;2071712;28;19926;-78
2023/01/14 01:40:16;;;;;;;;;;;;;;;15.63;59.92;101239.13;2076585;28;20377;-78
2023/01/14 01:41:19;;;;;;;;;;;;;;;15.62;59.98;101226.66;2070251;28;19929;-78
2023/01/14 01:42:24;;;;;;;;;;;;;;;15.63;59.97;101235.63;2070608;28;20524;-77
2023/01/14 01:43:27;;;;;;;;;;;;;;;15.62;59.80;101248.44;2069060;28;20071;-77
2023/01/14 01:44:48;;;;;;;;;;;;;;;15.63;59.95;101252.75;2078282;28;20366;-77
2023/01/14 01:45:50;;;;;;;;;;;;;;;15.62;59.96;101240.28;2085228;28;19928;-77
2023/01/14 01:46:53;;;;;;;;;;;;;;;15.63;59.85;101243.78;2077357;28;19936;-77
2023/01/14 01:48:14;;;;;;;;;;;;;;;15.62;59.69;101248.44;2077137;28;20019;-77
2023/01/14 01:49:17;;;;;;;;;;;;;;;15.62;59.83;101247.66;2078523;28;20442;-76
2023/01/14 01:50:20;;;;;;;;;;;;;;;15.62;60.03;101259.31;2078509;28;20389;-77
2023/01/14 01:51:25;;;;;;;;;;;;;;;15.62;59.96;101253.88;2086599;28;19928;-77
2023/01/14 01:52:29;;;;;;;;;;;;;;;15.62;59.81;101250.38;2077329;28;19932;-77
2023/01/14 01:53:31;;;;;;;;;;;;;;;15.62;60.00;101253.13;2071169;28;19929;-77
2023/01/14 01:54:37;;;;;;;;;;;;;;;15.62;59.96;101256.59;2079210;28;19936;-77
2023/01/14 01:55:46;;;;;;;;;;;;;;;15.62;60.05;101250.38;2079285;28;19928;-77
2023/01/14 01:56:49;;;;;;;;;;;;;;;15.61;59.98;101252.31;2077801;28;20381;-77
2023/01/14 01:57:55;;;;;;;;;;;;;;;15.62;59.99;101256.59;2077438;28;20028;-77
2023/01/14 01:58:59;;;;;;;;;;;;;;;15.61;60.00;101257.75;2077470;28;19941;-77
2023/01/14 02:00:03;;;;;;;;;;;;;;;15.61;59.97;101260.47;2069918;28;19980;-77
2023/01/14 02:01:14;;;;;;;;;;;;;;;15.61;59.85;101257.75;2070889;28;19930;-77
2023/01/14 02:02:16;;;;;;;;;;;;;;;15.61;59.76;101254.25;2076507;28;19929;-77
2023/01/14 02:03:26;;;;;;;;;;;;;;;15.61;59.95;101252.31;2070614;28;19929;-77
2023/01/14 02:04:28;;;;;;;;;;;;;;;15.61;59.93;101246.06;2079618;28;19936;-76
2023/01/14 02:05:31;;;;;;;;;;;;;;;15.61;60.02;101254.25;2068177;28;19992;-76
2023/01/14 02:06:34;;;;;;;;;;;;;;;15.61;60.01;101260.47;2069807;28;19985;-76
2023/01/14 02:07:37;;;;;;;;;;;;;;;15.61;60.03;101257.75;2076401;28;20683;-77
2023/01/14 02:08:41;;;;;;;;;;;;;;;15.61;59.85;101254.25;2078330;28;19961;-77
2023/01/14 02:09:45;;;;;;;;;;;;;;;15.61;59.89;101254.25;2078770;28;19964;-75
2023/01/14 02:10:56;;;;;;;;;;;;;;;15.60;60.02;101256.16;2078273;28;19930;-76
2023/01/14 02:12:10;;;;;;;;;;;;;;;15.61;59.79;101255.03;2070585;28;19929;-76
2023/01/14 02:13:20;;;;;;;;;;;;;;;15.60;60.00;101250.72;2066350;28;20016;-76
2023/01/14 02:14:37;;;;;;;;;;;;;;;15.60;59.84;101250.72;2072230;28;19983;-77
2023/01/14 02:15:47;;;;;;;;;;;;;;;15.60;59.89;101234.41;2070864;28;19977;-77
2023/01/14 02:16:55;;;;;;;;;;;;;;;15.60;60.00;101233.63;2069373;28;19929;-78
2023/01/14 02:18:02;;;;;;;;;;;;;;;15.60;59.83;101241.78;2064253;28;20482;-77
2023/01/14 02:19:14;;;;;;;;;;;;;;;15.59;59.91;101232.84;2071431;28;20400;-77
2023/01/14 02:20:21;;;;;;;;;;;;;;;15.59;59.94;101241.00;2079044;28;20015;-77
2023/01/14 02:21:26;;;;;;;;;;;;;;;15.59;59.80;101241.00;2077676;28;20551;-77
2023/01/14 02:22:35;;;;;;;;;;;;;;;15.60;59.86;101233.63;2078336;28;19929;-77
2023/01/14 02:23:53;;;;;;;;;;;;;;;15.59;59.80;101232.84;2087157;28;19933;-76
2023/01/14 02:25:03;;;;;;;;;;;;;;;15.60;59.87;101237.13;2078175;28;20359;-77
2023/01/14 02:26:20;;;;;;;;;;;;;;;15.60;59.76;101233.63;2072200;28;19933;-77
2023/01/14 02:27:30;;;;;;;;;;;;;;;15.59;59.76;101232.84;2070135;28;20056;-77
2023/01/14 02:28:41;;;;;;;;;;;;;;;15.60;59.88;101228.94;2066548;28;20405;-78
2023/01/14 02:30:00;;;;;;;;;;;;;;;15.59;59.80;101227.38;2071857;28;20340;-77
2023/01/14 02:31:14;;;;;;;;;;;;;;;15.59;59.93;101221.94;2076139;28;20351;-77
2023/01/14 02:32:22;;;;;;;;;;;;;;;15.60;59.92;101218.06;2070395;28;20044;-77
2023/01/14 02:33:35;;;;;;;;;;;;;;;15.59;59.81;101221.94;2064548;28;20033;-77
2023/01/14 02:34:41;;;;;;;;;;;;;;;15.59;59.81;101221.16;2064036;28;20659;-77
2023/01/14 02:35:47;;;;;;;;;;;;;;;15.58;59.79;101214.94;2069948;28;19979;-77
2023/01/14 02:36:52;;;;;;;;;;;;;;;15.60;59.86;101217.31;2070834;28;20385;-77
2023/01/14 02:38:01;;;;;;;;;;;;;;;15.59;59.82;101210.25;2063892;28;19952;-77
2023/01/14 02:39:07;;;;;;;;;;;;;;;15.59;59.93;101204.81;2063892;28;20028;-78
2023/01/14 02:40:12;;;;;;;;;;;;;;;15.59;59.95;101211.06;2070225;28;19929;-77
2023/01/14 02:41:17;;;;;;;;;;;;;;;15.58;59.73;101209.50;2070695;28;19930;-78
2023/01/14 02:44:09;;;;;;;;;;;;;;;15.59;59.98;101204.81;2071992;28;19934;-78
2023/01/14 02:45:19;;;;;;;;;;;;;;;15.59;59.90;101210.25;2068461;28;19973;-78
2023/01/14 02:46:26;;;;;;;;;;;;;;;15.59;59.87;101221.16;2062371;28;19977;-77
2023/01/14 02:47:30;;;;;;;;;;;;;;;15.58;59.82;101209.50;2076640;28;19960;-77
2023/01/14 02:48:35;;;;;;;;;;;;;;;15.58;59.95;101209.50;2077084;28;19933;-77
2023/01/14 02:49:40;;;;;;;;;;;;;;;15.58;59.84;101209.50;2077533;28;20071;-77
2023/01/14 02:50:43;;;;;;;;;;;;;;;15.57;59.99;101218.78;2076719;28;19929;-77
2023/01/14 02:51:48;;;;;;;;;;;;;;;15.58;59.88;101217.66;2070151;28;19941;-76
2023/01/14 02:52:50;;;;;;;;;;;;;;;15.58;59.86;101209.50;2062585;28;19933;-76
2023/01/14 02:53:53;;;;;;;;;;;;;;;15.58;59.95;101208.72;2062218;28;19930;-76
2023/01/14 02:54:56;;;;;;;;;;;;;;;15.57;59.74;101202.47;2063225;28;20523;-76
2023/01/14 02:56:01;;;;;;;;;;;;;;;15.57;59.88;101201.69;2068850;28;20048;-77
2023/01/14 02:57:07;;;;;;;;;;;;;;;15.57;60.01;101199.75;2061448;28;19946;-76
2023/01/14 02:58:18;;;;;;;;;;;;;;;15.57;59.86;101213.34;2069224;28;20397;-76
2023/01/14 02:59:36;;;;;;;;;;;;;;;15.57;60.06;101212.59;2069316;28;19960;-77
2023/01/14 03:00:45;;;;;;;;;;;;;;;15.58;59.98;101204.06;2077978;28;20692;-77
2023/01/14 03:02:03;;;;;;;;;;;;;;;15.57;59.97;101207.91;2077950;28;19935;-76
2023/01/14 03:03:16;;;;;;;;;;;;;;;15.57;59.80;101199.75;2079292;28;20426;-76
2023/01/14 03:04:28;;;;;;;;;;;;;;;15.57;59.89;101207.16;2078270;28;20025;-76
2023/01/14 03:05:39;;;;;;;;;;;;;;;15.56;59.96;101211.78;2077675;28;20456;-77
2023/01/14 03:06:54;;;;;;;;;;;;;;;15.57;59.84;101209.88;2079296;28;20039;-77
2023/01/14 03:07:58;;;;;;;;;;;;;;;15.57;59.90;101204.44;2078050;28;19971;-77
2023/01/14 03:09:03;;;;;;;;;;;;;;;15.56;59.82;101205.56;2068950;28;20398;-77
2023/01/14 03:10:10;;;;;;;;;;;;;;;15.57;59.96;101207.91;2061426;28;19930;-77
2023/01/14 03:11:14;;;;;;;;;;;;;;;15.57;60.02;101204.44;2062818;28;20404;-78
2023/01/14 03:12:20;;;;;;;;;;;;;;;15.57;59.84;101207.16;2071559;28;19934;-77
2023/01/14 03:13:29;;;;;;;;;;;;;;;15.56;59.88;101203.63;2070594;28;19973;-77
2023/01/14 03:14:32;;;;;;;;;;;;;;;15.57;59.96;101205.19;2079371;28;19925;-77
2023/01/14 03:15:38;;;;;;;;;;;;;;;15.56;59.85;101200.91;2070174;28;19936;-77
2023/01/14 03:16:44;;;;;;;;;;;;;;;15.56;60.04;101194.66;2070151;28;20963;-77
2023/01/14 03:17:50;;;;;;;;;;;;;;;15.56;59.87;101198.19;2078299;28;19924;-77
2023/01/14 03:18:56;;;;;;;;;;;;;;;15.56;59.86;101197.38;2084993;28;19940;-77
2023/01/14 03:20:04;;;;;;;;;;;;;;;15.56;59.91;101200.91;2076463;28;19940;-77
2023/01/14 03:21:09;;;;;;;;;;;;;;;15.56;59.79;101198.19;2071173;28;20229;-78
2023/01/14 03:22:11;;;;;;;;;;;;;;;15.56;59.90;101192.75;2078379;28;20373;-78
2023/01/14 03:23:18;;;;;;;;;;;;;;;15.55;60.00;101187.66;2069464;28;19926;-78
2023/01/14 03:24:25;;;;;;;;;;;;;;;15.55;60.09;101183.00;2061182;28;19934;-78
2023/01/14 03:25:29;;;;;;;;;;;;;;;15.56;59.97;101181.06;2078696;28;19952;-77
2023/01/14 03:26:36;;;;;;;;;;;;;;;15.55;59.82;101187.66;2084612;28;20013;-78
2023/01/14 03:27:40;;;;;;;;;;;;;;;15.55;60.03;101185.75;2078615;28;20735;-78
2023/01/14 03:28:47;;;;;;;;;;;;;;;15.55;59.98;101191.19;2076523;28;19986;-78
2023/01/14 03:29:54;;;;;;;;;;;;;;;15.55;60.06;101188.47;2077851;28;19925;-78
2023/01/14 03:30:59;;;;;;;;;;;;;;;15.55;59.96;101191.19;2069706;28;19987;-77
2023/01/14 03:32:05;;;;;;;;;;;;;;;15.54;59.86;101192.31;2061829;28;19934;-78
2023/01/14 03:33:09;;;;;;;;;;;;;;;15.56;59.87;101184.56;2062469;28;19938;-78
2023/01/14 03:34:13;;;;;;;;;;;;;;;15.55;59.79;101193.09;2070946;28;19936;-78
2023/01/14 03:35:18;;;;;;;;;;;;;;;15.56;59.98;101189.22;2079055;28;19928;-78
2023/01/14 03:36:23;;;;;;;;;;;;;;;15.54;59.93;101188.81;2070896;28;20118;-79
2023/01/14 03:37:27;;;;;;;;;;;;;;;15.54;59.88;101186.09;2077910;28;20332;-78
2023/01/14 03:38:31;;;;;;;;;;;;;;;15.55;59.77;101180.28;2069380;28;19930;-78
2023/01/14 03:39:33;;;;;;;;;;;;;;;15.54;59.92;101178.72;2060848;28;19941;-78
2023/01/14 03:40:37;;;;;;;;;;;;;;;15.54;59.96;101180.66;2069169;28;19929;-78
2023/01/14 03:43:06;;;;;;;;;;;;;;;15.54;59.99;101175.97;2082816;28;19933;-78
2023/01/14 03:44:12;;;;;;;;;;;;;;;15.53;60.04;101174.44;2077973;28;19933;-77
2023/01/14 03:45:17;;;;;;;;;;;;;;;15.54;59.88;101177.94;2069782;28;20703;-78
2023/01/14 03:46:19;;;;;;;;;;;;;;;15.54;60.04;101173.25;2078960;28;19982;-78
2023/01/14 03:47:24;;;;;;;;;;;;;;;15.54;59.93;101169.78;2069185;28;19934;-78
2023/01/14 03:48:25;;;;;;;;;;;;;;;15.54;59.80;101164.34;2062573;28;20417;-78
2023/01/14 03:49:28;;;;;;;;;;;;;;;15.54;59.89;101167.06;2069311;28;19934;-78
2023/01/14 03:50:33;;;;;;;;;;;;;;;15.54;59.89;101161.63;2076047;28;19929;-78
2023/01/14 03:51:41;;;;;;;;;;;;;;;15.53;59.87;101160.81;2075389;28;20333;-78
2023/01/14 03:52:50;;;;;;;;;;;;;;;15.53;60.05;101160.81;2077694;28;19926;-79
2023/01/14 03:53:57;;;;;;;;;;;;;;;15.54;59.99;101164.34;2069309;28;19933;-78
2023/01/14 03:55:03;;;;;;;;;;;;;;;15.53;59.88;101168.97;2060538;28;19933;-78
2023/01/14 03:56:13;;;;;;;;;;;;;;;15.54;59.99;101169.78;2069541;28;20322;-78
2023/01/14 03:57:18;;;;;;;;;;;;;;;15.53;59.81;101168.97;2085551;28;19925;-78
2023/01/14 03:58:24;;;;;;;;;;;;;;;15.54;59.95;101164.34;2078390;28;19929;-78
2023/01/14 03:59:29;;;;;;;;;;;;;;;15.53;60.02;101152.66;2078171;28;19929;-78
2023/01/14 04:00:33;;;;;;;;;;;;;;;15.52;59.86;101156.53;2075862;28;19925;-78
2023/01/14 04:01:38;;;;;;;;;;;;;;;15.53;59.90;101155.38;2073987;28;19925;-78
2023/01/14 04:02:43;;;;;;;;;;;;;;;15.53;59.96;101157.31;2068355;28;19976;-78
2023/01/14 04:03:46;;;;;;;;;;;;;;;15.53;59.88;101163.53;2078295;28;19929;-78
2023/01/14 04:04:48;;;;;;;;;;;;;;;15.52;59.86;101161.97;2077217;28;19933;-77
2023/01/14 04:05:51;;;;;;;;;;;;;;;15.53;59.81;101168.19;2061337;28;19937;-78
2023/01/14 04:06:53;;;;;;;;;;;;;;;15.53;59.74;101168.19;2069315;28;19934;-78
2023/01/14 04:07:57;;;;;;;;;;;;;;;15.52;59.86;101172.88;2084827;28;19925;-78
2023/01/14 04:08:59;;;;;;;;;;;;;;;15.52;59.99;101175.59;2075883;28;20533;-79
2023/01/14 04:10:01;;;;;;;;;;;;;;;15.52;60.01;101181.03;2068068;28;19980;-78
2023/01/14 04:11:03;;;;;;;;;;;;;;;15.52;59.87;101178.31;2075365;28;19926;-78
2023/01/14 04:12:06;;;;;;;;;;;;;;;15.52;60.08;101177.50;2075954;28;19948;-79
2023/01/14 04:15:48;;;;;;;;;;;;;;;15.52;59.88;101170.16;2079898;28;20302;-77
2023/01/14 04:16:51;;;;;;;;;;;;;;;15.52;59.78;101159.25;2085330;28;19929;-77
2023/01/14 04:17:54;;;;;;;;;;;;;;;15.52;59.89;101170.16;2084070;28;19963;-77
2023/01/14 04:18:56;;;;;;;;;;;;;;;15.52;59.89;101159.25;2069322;28;19925;-77
2023/01/14 04:19:58;;;;;;;;;;;;;;;15.52;59.77;101153.81;2076133;28;19933;-77
2023/01/14 04:21:01;;;;;;;;;;;;;;;15.51;59.90;101149.50;2085395;28;19933;-77
2023/01/14 04:22:02;;;;;;;;;;;;;;;15.51;59.88;101141.34;2077755;28;19929;-77
2023/01/14 04:23:05;;;;;;;;;;;;;;;15.51;59.81;101138.63;2076346;28;19926;-77
2023/01/14 04:24:07;;;;;;;;;;;;;;;15.51;60.00;101137.81;2085471;28;19952;-78
2023/01/14 04:25:09;;;;;;;;;;;;;;;15.51;59.81;101144.06;2084711;28;19932;-77
2023/01/14 04:26:11;;;;;;;;;;;;;;;15.51;59.92;101141.34;2076482;28;19968;-78
2023/01/14 04:27:13;;;;;;;;;;;;;;;15.50;59.87;101145.22;2075808;28;20424;-77
2023/01/14 04:28:15;;;;;;;;;;;;;;;15.51;59.94;101149.50;2077230;28;20005;-78
2023/01/14 04:29:18;;;;;;;;;;;;;;;15.50;59.80;101137.06;2069535;28;19958;-78
2023/01/14 04:30:20;;;;;;;;;;;;;;;15.51;59.90;101137.81;2061895;28;19941;-78
2023/01/14 04:31:23;;;;;;;;;;;;;;;15.51;59.93;101146.78;2060190;28;19934;-76
2023/01/14 04:32:24;;;;;;;;;;;;;;;15.50;59.88;101145.22;2077232;28;20338;-78
2023/01/14 04:33:28;;;;;;;;;;;;;;;15.51;59.91;101138.63;2084546;28;19929;-78
2023/01/14 04:34:30;;;;;;;;;;;;;;;15.50;60.00;101137.06;2076765;28;20019;-78
2023/01/14 04:35:33;;;;;;;;;;;;;;;15.50;59.98;101139.78;2076166;28;19962;-78
2023/01/14 04:36:35;;;;;;;;;;;;;;;15.50;59.78;101136.25;2077653;28;19929;-78
2023/01/14 04:37:37;;;;;;;;;;;;;;;15.51;59.98;101137.81;2068366;28;19934;-79
2023/01/14 04:38:40;;;;;;;;;;;;;;;15.50;59.84;101131.63;2069159;28;19934;-79
2023/01/14 04:39:41;;;;;;;;;;;;;;;15.50;59.98;101136.25;2069708;28;19949;-79
2023/01/14 04:40:44;;;;;;;;;;;;;;;15.50;59.97;101139.78;2068907;28;19980;-78
2023/01/14 04:43:06;;;;;;;;;;;;;;;15.50;59.79;101120.72;2076630;28;20325;-77
2023/01/14 04:44:08;;;;;;;;;;;;;;;15.49;59.89;101119.13;2067114;28;19929;-79
2023/01/14 04:45:11;;;;;;;;;;;;;;;15.49;60.02;101121.88;2077489;28;19929;-79
2023/01/14 04:46:14;;;;;;;;;;;;;;;15.50;59.85;101119.94;2068916;28;19929;-78
2023/01/14 04:47:16;;;;;;;;;;;;;;;15.50;59.90;101122.66;2068081;28;20011;-79
2023/01/14 04:48:19;;;;;;;;;;;;;;;15.49;59.90;101119.13;2076830;28;19925;-79
2023/01/14 04:49:22;;;;;;;;;;;;;;;15.48;59.83;101114.88;2077980;28;19968;-81
2023/01/14 04:50:34;;;;;;;;;;;;;;;15.49;60.12;101119.13;2076617;28;19930;-80
2023/01/14 04:51:37;;;;;;;;;;;;;;;15.49;59.95;101113.69;2070541;28;20297;-80
2023/01/14 04:52:40;;;;;;;;;;;;;;;15.49;60.25;101121.09;2067419;28;19933;-78
2023/01/14 04:53:42;;;;;;;;;;;;;;;15.48;59.65;101120.31;2076876;28;20731;-79
2023/01/14 04:54:44;;;;;;;;;;;;;;;15.49;59.91;101124.59;2069469;28;19929;-79
2023/01/14 04:55:47;;;;;;;;;;;;;;;15.48;59.86;101112.16;2076700;28;19925;-79
2023/01/14 04:56:49;;;;;;;;;;;;;;;15.48;59.92;101112.16;2083661;28;19933;-78
2023/01/14 04:57:51;;;;;;;;;;;;;;;15.48;59.94;101112.16;2067971;28;19941;-78
2023/01/14 04:58:53;;;;;;;;;;;;;;;15.49;59.92;101100.09;2068198;28;19926;-78
2023/01/14 04:59:55;;;;;;;;;;;;;;;15.48;59.96;101103.97;2076886;28;19929;-77
2023/01/14 05:00:57;;;;;;;;;;;;;;;15.48;60.05;101103.19;2069351;28;19963;-78
2023/01/14 05:02:00;;;;;;;;;;;;;;;15.48;59.93;101098.53;2067986;28;19934;-78
2023/01/14 05:03:03;;;;;;;;;;;;;;;15.48;59.93;101095.81;2076168;28;19929;-78
2023/01/14 05:04:05;;;;;;;;;;;;;;;15.48;60.04;101086.84;2077227;28;19929;-78
2023/01/14 05:05:09;;;;;;;;;;;;;;;15.48;60.01;101090.38;2084926;28;19983;-78
2023/01/14 05:06:11;;;;;;;;;;;;;;;15.47;59.89;101086.09;2075215;28;19985;-78
2023/01/14 05:07:13;;;;;;;;;;;;;;;15.48;59.95;101090.38;2067287;28;19940;-79
2023/01/14 05:08:15;;;;;;;;;;;;;;;15.48;59.91;101089.56;2068661;28;19940;-79
2023/01/14 05:09:17;;;;;;;;;;;;;;;15.48;60.03;101086.84;2061020;28;19929;-78
2023/01/14 05:10:20;;;;;;;;;;;;;;;15.48;59.90;101082.22;2069920;28;19933;-79
2023/01/14 05:11:22;;;;;;;;;;;;;;;15.48;60.01;101089.56;2077741;28;21694;-79
2023/01/14 05:12:24;;;;;;;;;;;;;;;15.48;60.01;101070.53;2069333;28;19980;-79
2023/01/14 05:13:27;;;;;;;;;;;;;;;15.46;59.87;101076.34;2061721;28;19934;-78
2023/01/14 05:14:29;;;;;;;;;;;;;;;15.47;60.00;101072.50;2069039;28;19944;-79
2023/01/14 05:15:33;;;;;;;;;;;;;;;15.47;59.95;101072.50;2085602;28;19929;-79
2023/01/14 05:16:35;;;;;;;;;;;;;;;15.47;60.05;101066.25;2077431;28;19929;-79
2023/01/14 05:17:38;;;;;;;;;;;;;;;15.47;59.96;101069.75;2072455;28;19929;-79
2023/01/14 05:18:39;;;;;;;;;;;;;;;15.47;59.78;101061.59;2073172;28;19939;-79
2023/01/14 05:19:42;;;;;;;;;;;;;;;15.47;59.95;101069.75;2069424;28;19938;-78
2023/01/14 05:20:45;;;;;;;;;;;;;;;15.47;59.99;101064.31;2068610;28;20060;-78
2023/01/14 05:21:48;;;;;;;;;;;;;;;15.48;60.11;101059.66;2086154;28;19929;-79
2023/01/14 05:22:50;;;;;;;;;;;;;;;15.46;59.94;101046.41;2079060;28;20384;-79
2023/01/14 05:23:53;;;;;;;;;;;;;;;15.48;59.87;101051.47;2062856;28;19978;-79
2023/01/14 05:24:55;;;;;;;;;;;;;;;15.47;60.00;101039.84;2077965;28;20004;-79
2023/01/14 05:25:58;;;;;;;;;;;;;;;15.46;59.84;101035.53;2070907;28;19936;-79
2023/01/14 05:26:59;;;;;;;;;;;;;;;15.47;60.05;101034.38;2061903;28;19929;-79
2023/01/14 05:28:03;;;;;;;;;;;;;;;15.47;59.97;101036.31;2069587;28;19936;-78
2023/01/14 05:29:05;;;;;;;;;;;;;;;15.47;59.89;101039.03;2070040;28;19934;-79
2023/01/14 05:30:08;;;;;;;;;;;;;;;15.47;59.94;101041.75;2062071;28;19930;-78
2023/01/14 05:31:10;;;;;;;;;;;;;;;15.46;59.87;101038.25;2061337;28;19926;-78
2023/01/14 05:32:14;;;;;;;;;;;;;;;15.46;59.92;101021.91;2070375;28;19929;-78
2023/01/14 05:33:16;;;;;;;;;;;;;;;15.47;59.81;101033.59;2078236;28;19925;-78
2023/01/14 05:34:19;;;;;;;;;;;;;;;15.47;59.96;101023.50;2077369;28;19936;-78
2023/01/14 05:35:20;;;;;;;;;;;;;;;15.46;59.92;101027.34;2077338;28;19933;-78
2023/01/14 05:36:24;;;;;;;;;;;;;;;15.47;59.87;101031.66;2077975;28;20415;-77
2023/01/14 05:37:26;;;;;;;;;;;;;;;15.47;60.08;101034.38;2086104;28;19928;-77